M I D A S
Marine Information and Data Acquisition System
Tripno 960 of the Zeeleeuw from 2005-09-22 06:30:24 to 2005-09-22 12:49:48
Back to CruiseResearch ActivitiesStationsMapUnderway DataData graphs

EquipmentUnitsComment
TimeDGPSUTC
LatitudeDGPSDM.mWGS84
LongitudeDGPSDM.mWGS84
HeadingGyrodeg 
SOGDGPSknotsSpeed over ground
COGDGPSdegCourse over ground
DepthEcho soundermeters200 kHz
Missing or incorrect values are displayed as -999
Navigation data collected by the RV Zeeleeuw from 2005-09-22 06:26:50 to 2005-09-22 13:01:30
Time Latitude Longitude Heading SOG COG Depth
2005-09-22 06:27:54 51°13.601 2°56.102 126.9 -999 166 6.7
2005-09-22 06:28:54 51°13.6 2°56.102 125 0.1 161 6.8
2005-09-22 06:29:54 51°13.6 2°56.096 113.9 0.7 291 6.7
2005-09-22 06:30:55 51°13.622 2°56.023 117.5 4.1 294 -999
2005-09-22 06:31:55 51°13.657 2°55.904 119.1 5.3 295 -999
2005-09-22 06:32:55 51°13.704 2°55.779 125.2 5.1 303 -999
2005-09-22 06:33:54 51°13.733 2°55.701 108.3 1.8 300 11
2005-09-22 06:34:55 51°13.752 2°55.722 40.8 1.7 27 9.5
2005-09-22 06:35:55 51°13.738 2°55.705 15 1.8 211 -999
2005-09-22 06:36:54 51°13.746 2°55.687 349.2 3.2 340 10.7
2005-09-22 06:37:55 51°13.86 2°55.615 341.5 9.2 338 10.1
2005-09-22 06:38:54 51°13.986 2°55.528 340.7 7.6 336 10.1
2005-09-22 06:39:55 51°14.096 2°55.448 337.9 7.1 334 10.5
2005-09-22 06:40:54 51°14.196 2°55.357 329.4 7 327 10.7
2005-09-22 06:41:54 51°14.282 2°55.228 313.5 7.3 310 10.7
2005-09-22 06:42:54 51°14.372 2°55.031 310.6 9.9 307 10.5
2005-09-22 06:43:55 51°14.498 2°54.832 330.6 11.2 319 10.1
2005-09-22 06:44:54 51°14.675 2°54.677 341.8 12.7 334 9.5
2005-09-22 06:45:54 51°14.867 2°54.516 340.6 13 334 8.9
2005-09-22 06:46:54 51°15.057 2°54.351 335.5 13.1 329 8.3
2005-09-22 06:47:54 51°15.254 2°54.191 340 13.4 335 8.8
2005-09-22 06:48:55 51°15.451 2°54.008 337.4 13.6 330 9.7
2005-09-22 06:49:54 51°15.646 2°53.837 338.2 13.5 330 10.5
2005-09-22 06:50:55 51°15.845 2°53.663 338.3 13.5 331 10.9
2005-09-22 06:51:54 51°16.037 2°53.496 339 13.4 332 11.4
2005-09-22 06:52:54 51°16.237 2°53.334 339.9 13.5 333 11.7
2005-09-22 06:53:54 51°16.439 2°53.173 340 13.5 333 11.7
2005-09-22 06:54:54 51°16.636 2°53.004 338 13.4 332 11.2
2005-09-22 06:55:55 51°16.835 2°52.834 338.6 13.3 332 9.2
2005-09-22 06:56:55 51°17.032 2°52.665 336.8 13.4 331 10
2005-09-22 06:57:54 51°17.225 2°52.491 336.8 13.5 330 9.8
2005-09-22 06:58:54 51°17.419 2°52.306 335.5 13.5 328 10.2
2005-09-22 06:59:54 51°17.617 2°52.135 340.2 13.6 332 10.1
2005-09-22 07:00:54 51°17.812 2°51.961 338.8 13.4 331 10.1
2005-09-22 07:01:54 51°18.009 2°51.788 339 13.5 331 10.4
2005-09-22 07:02:55 51°18.209 2°51.616 338.7 13.6 331 11.3
2005-09-22 07:03:55 51°18.41 2°51.445 339.4 13.6 332 12.5
2005-09-22 07:04:55 51°18.61 2°51.273 340.1 13.7 333 13.7
2005-09-22 07:05:54 51°18.809 2°51.109 339.9 13.5 332 14.3
2005-09-22 07:06:55 51°19.01 2°50.943 339.9 13.6 332 14.5
2005-09-22 07:07:54 51°19.209 2°50.781 340.4 13.6 333 14.1
2005-09-22 07:08:54 51°19.409 2°50.618 339.9 13.4 333 12.3
2005-09-22 07:09:55 51°19.613 2°50.452 340.2 13.7 333 12
2005-09-22 07:10:54 51°19.815 2°50.287 340.4 13.8 333 13.5
2005-09-22 07:11:55 51°20.021 2°50.12 340.3 13.7 333 15.1
2005-09-22 07:12:54 51°20.22 2°49.955 339.7 13.7 333 18
2005-09-22 07:13:54 51°20.423 2°49.791 340.6 13.7 333 20.9
2005-09-22 07:14:54 51°20.624 2°49.616 335.9 13.8 329 22.4
2005-09-22 07:15:55 51°20.822 2°49.424 334.6 13.7 328 22.6
2005-09-22 07:16:55 51°21.02 2°49.248 339 -999 -999 21.7
2005-09-22 07:17:55 51°21.221 2°49.081 339.1 13.7 332 21.3
2005-09-22 07:18:55 51°21.423 2°48.914 339.6 13.7 333 20.4
2005-09-22 07:19:55 51°21.627 2°48.748 339.3 13.8 333 22.7
2005-09-22 07:20:54 51°21.828 2°48.59 341 13.7 334 22.9
2005-09-22 07:21:55 51°22.034 2°48.433 341.5 13.6 334 23.4
2005-09-22 07:22:55 51°22.237 2°48.278 342.5 13.7 335 22.5
2005-09-22 07:23:54 51°22.44 2°48.123 342.1 13.5 334 16.6
2005-09-22 07:24:54 51°22.645 2°47.972 342.5 13.6 335 14.6
2005-09-22 07:25:55 51°22.857 2°47.819 341.4 13.7 336 17.2
2005-09-22 07:26:54 51°23.063 2°47.673 342.2 13.6 336 16.9
2005-09-22 07:27:55 51°23.273 2°47.525 342.3 13.7 336 20.9
2005-09-22 07:28:54 51°23.477 2°47.375 341.8 13.6 335 20.2
2005-09-22 07:29:55 51°23.684 2°47.223 342.8 13.6 337 22
2005-09-22 07:30:54 51°23.893 2°47.097 349 13.5 343 24.4
2005-09-22 07:31:54 51°24.106 2°46.987 349.4 13.6 341 27.6
2005-09-22 07:32:54 51°24.321 2°46.877 349.5 13.5 343 27.8
2005-09-22 07:33:54 51°24.52 2°46.952 40.1 12.6 33 29.6
2005-09-22 07:34:55 51°24.611 2°47.249 75.4 12.5 71 30.5
2005-09-22 07:35:55 51°24.686 2°47.563 72.5 12.6 68 29.4
2005-09-22 07:36:55 51°24.765 2°47.874 71.8 12.6 68 28.3
2005-09-22 07:37:54 51°24.841 2°48.183 72.4 12.6 68 26.9
2005-09-22 07:38:54 51°24.919 2°48.495 74.4 12.6 69 24.8
2005-09-22 07:39:54 51°24.993 2°48.808 74.6 12.6 70 23.7
2005-09-22 07:40:54 51°25.071 2°49.117 72.8 12.6 67 22
2005-09-22 07:41:54 51°25.149 2°49.425 73.2 12.5 67 21.8
2005-09-22 07:42:55 51°25.229 2°49.737 72.9 12.5 67 22.1
2005-09-22 07:43:55 51°25.306 2°50.042 73.3 12.5 67 22.2
2005-09-22 07:44:54 51°25.382 2°50.348 74.6 12.6 69 22.8
2005-09-22 07:45:55 51°25.457 2°50.661 73.9 12.4 69 22.6
2005-09-22 07:46:54 51°25.534 2°50.964 73.5 12.4 68 22.6
2005-09-22 07:47:54 51°25.611 2°51.268 73.7 12.3 67 22.4
2005-09-22 07:48:55 51°25.69 2°51.576 72.7 12.4 67 23.3
2005-09-22 07:49:54 51°25.77 2°51.879 73.7 12.4 69 28.9
2005-09-22 07:50:54 51°25.848 2°52.187 73.6 12.3 68 25.4
2005-09-22 07:51:54 51°25.925 2°52.493 74.1 12.4 69 26.6
2005-09-22 07:52:55 51°26.002 2°52.799 73.6 12.4 68 26.5
2005-09-22 07:53:54 51°26.079 2°53.105 73.8 12.4 68 28.4
2005-09-22 07:54:54 51°26.156 2°53.411 72.8 12.6 68 30.5
2005-09-22 07:55:55 51°26.233 2°53.724 73.2 12.5 68 30.5
2005-09-22 07:56:54 51°26.308 2°54.028 73.9 12.5 69 28.2
2005-09-22 07:57:55 51°26.384 2°54.343 73.3 12.5 69 22.4
2005-09-22 07:58:55 51°26.459 2°54.651 73.4 12.3 69 24.7
2005-09-22 07:59:54 51°26.53 2°54.957 73.4 12.5 69 24.6
2005-09-22 08:00:55 51°26.613 2°55.267 71.8 12.5 67 24.1
2005-09-22 08:01:54 51°26.692 2°55.572 72.3 12.5 68 25.3
2005-09-22 08:02:55 51°26.772 2°55.883 72.6 12.5 68 25.6
2005-09-22 08:03:54 51°26.853 2°56.19 71.6 12.7 66 24.8
2005-09-22 08:04:55 51°26.936 2°56.501 72.2 12.6 67 22.3
2005-09-22 08:05:54 51°27.018 2°56.801 72.6 12.4 66 18.4
2005-09-22 08:06:55 51°27.096 2°57.109 72.5 12.4 68 22.2
2005-09-22 08:07:55 51°27.176 2°57.415 72.5 12.5 68 22.3
2005-09-22 08:08:54 51°27.255 2°57.72 73 12.5 68 20.6
2005-09-22 08:09:55 51°27.335 2°58.031 71.7 12.5 67 19.3
2005-09-22 08:10:55 51°27.415 2°58.338 72.6 12.6 67 17.3
2005-09-22 08:11:55 51°27.494 2°58.645 72.2 12.5 67 17.1
2005-09-22 08:12:54 51°27.573 2°58.949 71.7 12.6 66 17.7
2005-09-22 08:13:55 51°27.649 2°59.264 73.3 12.6 68 18.4
2005-09-22 08:14:55 51°27.723 2°59.577 73.8 12.6 69 17.9
2005-09-22 08:15:54 51°27.798 2°59.887 73.3 12.5 70 17.4
2005-09-22 08:16:54 51°27.871 3°0.201 72.9 12.6 70 19.2
2005-09-22 08:17:55 51°27.945 3°0.519 73.8 12.5 70 20.5
2005-09-22 08:18:55 51°28.016 3°0.831 73.5 12.5 70 20.8
2005-09-22 08:19:55 51°28.089 3°1.145 73 12.6 70 21.4
2005-09-22 08:20:55 51°28.163 3°1.46 72.8 12.6 69 22.2
2005-09-22 08:21:54 51°28.237 3°1.773 72.5 12.6 69 22.4
2005-09-22 08:22:55 51°28.314 3°2.089 71.8 12.7 68 22.6
2005-09-22 08:23:54 51°28.391 3°2.402 71.9 12.7 69 22.6
2005-09-22 08:24:54 51°28.469 3°2.715 71.9 12.7 67 22.6
2005-09-22 08:25:55 51°28.549 3°3.03 71.5 12.6 68 22.7
2005-09-22 08:26:55 51°28.628 3°3.341 69.9 12.6 66 22.7
2005-09-22 08:27:54 51°28.715 3°3.644 69.3 12.6 65 22.4
2005-09-22 08:28:55 51°28.813 3°3.944 62.5 12.5 52 22.4
2005-09-22 08:29:54 51°28.999 3°4.077 18.3 12.9 9 22.6
2005-09-22 08:30:54 51°29.215 3°4.042 355.8 13.2 348 22.6
2005-09-22 08:31:54 51°29.427 3°3.963 354.8 13 347 22.9
2005-09-22 08:32:54 51°29.637 3°3.885 354.1 13 346 21.5
2005-09-22 08:33:55 51°29.847 3°3.8 352.5 12.9 345 21.5
2005-09-22 08:34:55 51°30.037 3°3.659 327.8 12.9 319 23.6
2005-09-22 08:35:54 51°30.075 3°3.333 266.3 13.3 260 24.9
2005-09-22 08:36:54 51°30.017 3°2.984 259.4 13.6 254 25.5
2005-09-22 08:37:55 51°29.969 3°2.624 261.8 13.7 258 24.6
2005-09-22 08:38:54 51°29.921 3°2.268 261.8 13.9 258 23.2
2005-09-22 08:39:55 51°29.867 3°1.907 259.1 13.8 255 25.6
2005-09-22 08:40:54 51°29.813 3°1.554 259.6 13.9 256 25.3
2005-09-22 08:41:54 51°29.76 3°1.197 260.8 13.8 257 25.9
2005-09-22 08:42:55 51°29.706 3°0.833 259.5 13.9 256 27.2
2005-09-22 08:43:54 51°29.651 3°0.477 259.6 13.9 256 27.4
2005-09-22 08:44:55 51°29.593 3°0.114 258.3 13.9 255 27.5
2005-09-22 08:45:54 51°29.532 2°59.759 258.1 14 255 27.5
2005-09-22 08:46:54 51°29.471 2°59.399 258.2 14 255 27.3
2005-09-22 08:47:55 51°29.411 2°59.034 258.2 14 255 26.8
2005-09-22 08:48:54 51°29.35 2°58.676 257.8 14 254 26.4
2005-09-22 08:49:55 51°29.288 2°58.313 258.3 14 255 26
2005-09-22 08:50:55 51°29.226 2°57.951 258.3 14.1 254 24.4
2005-09-22 08:51:55 51°29.161 2°57.586 258.9 14.3 255 24.6
2005-09-22 08:52:55 51°29.101 2°57.217 260.7 14.3 255 24.4
2005-09-22 08:53:54 51°29.04 2°56.851 260.4 14.4 255 22.1
2005-09-22 08:54:54 51°28.983 2°56.479 262 14.4 257 22.8
2005-09-22 08:55:54 51°28.926 2°56.106 261.8 14.4 257 22
2005-09-22 08:56:54 51°28.869 2°55.734 260.6 14.4 256 19.6
2005-09-22 08:57:55 51°28.812 2°55.358 261.5 14.4 256 20.6
2005-09-22 08:58:54 51°28.758 2°54.99 261 14.3 256 20.7
2005-09-22 08:59:54 51°28.702 2°54.618 261.5 14.3 256 22.3
2005-09-22 09:00:55 51°28.646 2°54.242 261.2 14.3 257 22.9
2005-09-22 09:01:55 51°28.591 2°53.87 261.2 14.3 257 23.5
2005-09-22 09:02:54 51°28.537 2°53.502 261.4 14.3 257 23.1
2005-09-22 09:03:55 51°28.484 2°53.127 261.2 14.3 257 23.1
2005-09-22 09:04:54 51°28.431 2°52.758 261.4 14.3 257 23.3
2005-09-22 09:05:55 51°28.377 2°52.383 261.6 14.3 257 24
2005-09-22 09:06:54 51°28.323 2°52.013 261.4 14.4 257 25.4
2005-09-22 09:07:54 51°28.268 2°51.638 261.4 14.4 257 25.9
2005-09-22 09:08:55 51°28.21 2°51.258 261.2 14.6 257 25
2005-09-22 09:09:54 51°28.155 2°50.882 261.7 14.6 257 26.8
2005-09-22 09:10:54 51°28.098 2°50.503 260.8 14.6 256 26.1
2005-09-22 09:11:55 51°28.041 2°50.121 261.3 14.6 257 26.8
2005-09-22 09:12:55 51°27.985 2°49.745 261 14.5 256 24.7
2005-09-22 09:13:54 51°27.928 2°49.371 261.6 14.6 256 25.5
2005-09-22 09:14:55 51°27.87 2°48.989 260.6 14.7 255 24.9
2005-09-22 09:15:55 51°27.813 2°48.608 262.1 14.6 257 29.2
2005-09-22 09:16:54 51°27.756 2°48.233 261.4 14.7 256 25.6
2005-09-22 09:17:55 51°27.696 2°47.85 261.3 14.7 256 25.8
2005-09-22 09:18:55 51°27.638 2°47.467 261.8 14.8 257 29.1
2005-09-22 09:19:55 51°27.577 2°47.084 260.9 14.9 256 28.8
2005-09-22 09:20:55 51°27.516 2°46.699 261.4 15 256 30.4
2005-09-22 09:21:55 51°27.455 2°46.315 261.4 14.8 256 28.9
2005-09-22 09:22:55 51°27.396 2°45.931 261.3 14.8 256 27.7
2005-09-22 09:23:55 51°27.335 2°45.548 261.1 14.9 255 27.4
2005-09-22 09:24:55 51°27.276 2°45.163 261.5 14.7 256 27.3
2005-09-22 09:25:54 51°27.23 2°44.786 271.6 14.6 265 26.4
2005-09-22 09:26:55 51°27.311 2°44.455 324.7 12.9 320 25.6
2005-09-22 09:27:55 51°27.502 2°44.293 343.1 13.2 332 26.4
2005-09-22 09:28:54 51°27.692 2°44.122 341.6 13.2 331 26.9
2005-09-22 09:29:55 51°27.886 2°43.95 341.6 13.3 331 28.3
2005-09-22 09:30:54 51°28.077 2°43.782 341.7 13.1 331 29.8
2005-09-22 09:31:54 51°28.267 2°43.617 341.4 12.9 331 30.7
2005-09-22 09:32:55 51°28.464 2°43.495 351.1 12.4 341 30.1
2005-09-22 09:33:54 51°28.627 2°43.616 50 11.4 53 30.2
2005-09-22 09:34:54 51°28.708 2°43.899 67.3 11.8 67 29.5
2005-09-22 09:35:55 51°28.783 2°44.193 68.9 11.8 69 28.7
2005-09-22 09:36:55 51°28.853 2°44.487 69.3 11.7 69 29.2
2005-09-22 09:37:54 51°28.927 2°44.774 68.2 11.7 68 27.8
2005-09-22 09:38:54 51°28.997 2°45.065 70.2 11.7 70 24.4
2005-09-22 09:39:54 51°29.066 2°45.358 69.8 11.8 69 24.5
2005-09-22 09:40:54 51°29.139 2°45.649 68 11.6 67 20.7
2005-09-22 09:41:54 51°29.212 2°45.936 67.8 11.6 68 17.9
2005-09-22 09:42:54 51°29.287 2°46.223 68.2 11.7 69 19
2005-09-22 09:43:54 51°29.358 2°46.514 69.9 11.7 70 24.2
2005-09-22 09:44:54 51°29.428 2°46.806 69.5 11.6 69 24.7
2005-09-22 09:45:55 51°29.495 2°47.102 68.9 11.7 69 22.6
2005-09-22 09:46:54 51°29.564 2°47.391 68.6 11.8 69 23.2
2005-09-22 09:47:55 51°29.631 2°47.688 69.3 11.8 71 22
2005-09-22 09:48:55 51°29.699 2°47.982 70 11.8 70 22.5
2005-09-22 09:49:55 51°29.767 2°48.276 68.9 11.7 69 20.5
2005-09-22 09:50:55 51°29.836 2°48.57 68.7 11.7 69 19.9
2005-09-22 09:51:55 51°29.905 2°48.864 69.6 11.7 69 23
2005-09-22 09:52:54 51°29.972 2°49.152 68.8 11.7 68 22.3
2005-09-22 09:53:55 51°30.044 2°49.446 69.4 11.7 68 22.1
2005-09-22 09:54:54 51°30.114 2°49.735 70 11.7 70 20.7
2005-09-22 09:55:55 51°30.184 2°50.03 70 11.8 71 19.9
2005-09-22 09:56:54 51°30.253 2°50.321 70.6 11.8 72 22.6
2005-09-22 09:57:54 51°30.322 2°50.614 69.4 11.8 71 16.2
2005-09-22 09:58:55 51°30.392 2°50.913 69.9 11.9 71 19.9
2005-09-22 09:59:55 51°30.462 2°51.207 70.1 12 71 20.4
2005-09-22 10:00:55 51°30.529 2°51.503 68.8 11.8 70 17.6
2005-09-22 10:01:54 51°30.596 2°51.797 69.1 11.7 71 19.1
2005-09-22 10:02:55 51°30.662 2°52.095 69.6 11.8 70 20
2005-09-22 10:03:54 51°30.728 2°52.388 68.4 11.7 69 19.4
2005-09-22 10:04:54 51°30.797 2°52.679 66.8 11.5 67 18.1
2005-09-22 10:05:54 51°30.87 2°52.966 67.7 11.7 67 19.2
2005-09-22 10:06:54 51°30.943 2°53.251 68.2 11.6 69 16.3
2005-09-22 10:07:54 51°31.016 2°53.536 67.7 11.6 67 18.7
2005-09-22 10:08:54 51°31.091 2°53.819 66.7 11.6 68 16.5
2005-09-22 10:09:54 51°31.164 2°54.104 67 11.5 67 19
2005-09-22 10:10:54 51°31.237 2°54.388 66.8 11.6 68 15.3
2005-09-22 10:11:55 51°31.308 2°54.677 67.2 11.6 69 17.3
2005-09-22 10:12:55 51°31.38 2°54.963 67.1 11.6 69 18
2005-09-22 10:13:55 51°31.451 2°55.25 67.5 11.7 69 18.1
2005-09-22 10:14:54 51°31.522 2°55.536 67.3 11.7 68 15.6
2005-09-22 10:15:54 51°31.592 2°55.825 66.7 11.6 68 17.6
2005-09-22 10:16:55 51°31.664 2°56.121 67.3 11.8 68 18.2
2005-09-22 10:17:54 51°31.733 2°56.41 66.7 11.9 69 17.1
2005-09-22 10:18:54 51°31.803 2°56.705 67 11.8 69 17
2005-09-22 10:19:55 51°31.874 2°57.002 67.1 11.9 68 13.7
2005-09-22 10:20:55 51°31.946 2°57.3 66.9 11.8 67 14.6
2005-09-22 10:21:54 51°32.017 2°57.592 67.7 11.9 69 15.7
2005-09-22 10:22:54 51°32.092 2°57.888 67.3 11.9 67 19.8
2005-09-22 10:23:55 51°32.169 2°58.187 66.6 11.8 66 24.3
2005-09-22 10:24:55 51°32.269 2°58.437 48.5 11.2 43 27.6
2005-09-22 10:25:55 51°32.41 2°58.637 48.2 11.3 46 27.6
2005-09-22 10:26:54 51°32.541 2°58.863 49.6 11.7 48 27.8
2005-09-22 10:27:55 51°32.677 2°59.094 48.8 11.7 46 29.8
2005-09-22 10:28:55 51°32.807 2°59.325 50.1 11.8 48 27.4
2005-09-22 10:29:54 51°32.937 2°59.554 50.7 11.8 48 31.3
2005-09-22 10:30:54 51°33.069 2°59.786 49.8 11.8 46 30.8
2005-09-22 10:31:55 51°33.203 3°0.021 49.7 11.8 47 30.9
2005-09-22 10:32:55 51°33.335 3°0.252 50 11.8 48 30
2005-09-22 10:33:55 51°33.466 3°0.482 49.8 11.7 48 28.6
2005-09-22 10:34:55 51°33.598 3°0.711 49.3 11.7 48 27.4
2005-09-22 10:35:54 51°33.726 3°0.937 50.3 11.5 48 24
2005-09-22 10:36:55 51°33.868 3°1.131 28.2 10.8 21 18.6
2005-09-22 10:37:54 51°34.051 3°1.097 357.1 11.5 349 15.5
2005-09-22 10:38:55 51°34.244 3°1.035 358.1 12.2 348 13.8
2005-09-22 10:39:55 51°34.378 3°0.816 303.4 12.7 291 15
2005-09-22 10:40:54 51°34.334 3°0.462 256.8 14.4 249 14.5
2005-09-22 10:41:54 51°34.234 3°0.107 251.8 14.6 245 17.1
2005-09-22 10:42:55 51°34.129 2°59.75 251 14.7 245 18.5
2005-09-22 10:43:55 51°34.025 2°59.395 250.9 14.8 244 20.3
2005-09-22 10:44:54 51°33.923 2°59.041 251.5 14.7 245 18.8
2005-09-22 10:45:55 51°33.818 2°58.679 252.4 14.7 246 21.4
2005-09-22 10:46:55 51°33.717 2°58.325 251.8 14.7 245 22
2005-09-22 10:47:55 51°33.611 2°57.968 251.3 14.7 245 21
2005-09-22 10:48:54 51°33.507 2°57.617 251.1 14.7 245 23.7
2005-09-22 10:49:54 51°33.4 2°57.26 251.4 14.9 244 23.9
2005-09-22 10:50:55 51°33.293 2°56.895 251.3 14.9 245 24.7
2005-09-22 10:51:54 51°33.188 2°56.542 251.1 15 245 25.6
2005-09-22 10:52:55 51°33.081 2°56.181 251.1 14.9 244 24
2005-09-22 10:53:55 51°32.976 2°55.823 251.2 14.9 244 24.7
2005-09-22 10:54:54 51°32.869 2°55.467 251.1 15 244 24.1
2005-09-22 10:55:54 51°32.761 2°55.107 251.2 14.9 244 24.7
2005-09-22 10:56:54 51°32.655 2°54.749 251.1 14.9 245 19.7
2005-09-22 10:57:54 51°32.549 2°54.388 252 14.9 245 21.9
2005-09-22 10:58:54 51°32.442 2°54.03 250.7 14.9 245 23.5
2005-09-22 10:59:54 51°32.337 2°53.672 251.3 14.8 245 22.4
2005-09-22 11:00:54 51°32.23 2°53.313 251.4 14.9 245 23.3
2005-09-22 11:01:54 51°32.124 2°52.955 251.1 14.9 245 21.9
2005-09-22 11:02:55 51°32.016 2°52.594 251 14.8 245 24.8
2005-09-22 11:03:55 51°31.911 2°52.233 251.2 14.8 246 25.1
2005-09-22 11:04:55 51°31.805 2°51.874 251.4 15 244 27.3
2005-09-22 11:05:54 51°31.7 2°51.522 252.2 14.8 245 24.2
2005-09-22 11:06:55 51°31.593 2°51.156 251.5 14.9 244 27.6
2005-09-22 11:07:54 51°31.49 2°50.804 251.1 14.9 245 28.8
2005-09-22 11:08:54 51°31.37 2°50.457 245.3 14.9 239 26
2005-09-22 11:09:54 51°31.243 2°50.114 244.7 15 240 27.6
2005-09-22 11:10:55 51°31.114 2°49.767 244.5 14.8 239 26.4
2005-09-22 11:11:55 51°30.988 2°49.422 245.1 15.1 240 27.6
2005-09-22 11:12:55 51°30.864 2°49.079 245.1 14.9 240 25.8
2005-09-22 11:13:55 51°30.739 2°48.735 245.4 14.8 239 25.8
2005-09-22 11:14:55 51°30.615 2°48.389 245.1 14.9 240 24.2
2005-09-22 11:15:54 51°30.493 2°48.052 244.9 14.9 239 24.9
2005-09-22 11:16:55 51°30.367 2°47.705 245.8 14.9 240 24.3
2005-09-22 11:17:55 51°30.241 2°47.359 245.2 14.9 239 22.4
2005-09-22 11:18:54 51°30.118 2°47.021 245.1 14.8 240 25.6
2005-09-22 11:19:54 51°29.997 2°46.676 245.1 14.8 241 25.5
2005-09-22 11:20:54 51°29.875 2°46.334 245.3 14.8 240 25.5
2005-09-22 11:21:55 51°29.751 2°45.986 244.7 14.7 241 23.5
2005-09-22 11:22:55 51°29.631 2°45.646 244.4 14.7 239 25.8
2005-09-22 11:23:54 51°29.514 2°45.312 244.9 14.6 240 26
2005-09-22 11:24:54 51°29.394 2°44.974 245.4 14.6 241 30.4
2005-09-22 11:25:54 51°29.275 2°44.636 245.7 14.6 241 25.5
2005-09-22 11:26:55 51°29.152 2°44.291 245.3 14.6 240 27.5
2005-09-22 11:27:54 51°29.034 2°43.957 245.7 14.6 240 28.9
2005-09-22 11:28:54 51°28.914 2°43.617 244.8 14.7 240 29.6
2005-09-22 11:29:54 51°28.794 2°43.275 245.2 14.7 240 30.4
2005-09-22 11:30:55 51°28.671 2°42.93 245.1 14.8 240 30.1
2005-09-22 11:31:54 51°28.551 2°42.592 244.9 14.8 240 30.9
2005-09-22 11:32:55 51°28.415 2°42.26 234.5 14.8 230 27.6
2005-09-22 11:33:54 51°28.201 2°42.128 181.8 14.1 180 29.9
2005-09-22 11:34:55 51°27.965 2°42.184 164.8 14.2 167 30.9
2005-09-22 11:35:55 51°27.736 2°42.271 163.8 14 167 30.4
2005-09-22 11:36:56 51°27.506 2°42.357 163.5 14 166 30.5
2005-09-22 11:37:55 51°27.28 2°42.438 164.6 13.9 168 31.2
2005-09-22 11:38:55 51°27.057 2°42.511 161.5 13.6 167 31.3
2005-09-22 11:39:54 51°26.84 2°42.588 161.5 13.6 168 31.1
2005-09-22 11:40:55 51°26.615 2°42.665 162.2 13.6 168 26.2
2005-09-22 11:41:54 51°26.397 2°42.741 161.4 13.6 167 26.1
2005-09-22 11:42:55 51°26.172 2°42.823 162 13.7 168 27.5
2005-09-22 11:43:54 51°25.951 2°42.899 162.3 13.8 169 23.5
2005-09-22 11:44:55 51°25.723 2°42.98 161.5 13.9 167 23.1
2005-09-22 11:45:54 51°25.501 2°43.063 162.3 14 166 25.4
2005-09-22 11:46:55 51°25.273 2°43.152 161.9 13.9 166 24.2
2005-09-22 11:47:55 51°25.047 2°43.239 162.3 14.1 166 23.2
2005-09-22 11:48:54 51°24.825 2°43.327 162.8 14.2 167 23.3
2005-09-22 11:49:55 51°24.594 2°43.421 162.3 13.9 165 23.3
2005-09-22 11:50:55 51°24.372 2°43.518 162.5 13.9 165 25.1
2005-09-22 11:51:54 51°24.152 2°43.596 161.9 13.8 167 26.5
2005-09-22 11:52:55 51°23.928 2°43.679 161.8 13.7 167 26.7
2005-09-22 11:53:55 51°23.709 2°43.757 161.6 13.6 167 26.9
2005-09-22 11:54:55 51°23.485 2°43.838 162.1 13.7 167 26.3
2005-09-22 11:55:55 51°23.265 2°43.917 162.2 13.7 167 27.2
2005-09-22 11:56:54 51°23.043 2°44.001 163 13.9 167 26.5
2005-09-22 11:57:54 51°22.819 2°44.092 162.2 14 167 25.9
2005-09-22 11:58:54 51°22.595 2°44.181 162.1 13.8 166 26.7
2005-09-22 11:59:55 51°22.368 2°44.274 162.1 13.8 165 26.4
2005-09-22 12:00:55 51°22.149 2°44.383 158.3 13.8 161 24.9
2005-09-22 12:01:55 51°21.932 2°44.502 159.3 13.8 161 21.7
2005-09-22 12:02:54 51°21.717 2°44.621 159 13.8 161 23.2
2005-09-22 12:03:55 51°21.498 2°44.746 156 13.8 155 22.8
2005-09-22 12:04:55 51°21.304 2°44.929 143 13.4 145 25.5
2005-09-22 12:05:55 51°21.12 2°45.137 142 13.4 145 26.7
2005-09-22 12:06:55 51°20.937 2°45.339 143.2 13.5 146 26.6
2005-09-22 12:07:54 51°20.758 2°45.537 142.9 13.1 145 25.9
2005-09-22 12:08:54 51°20.589 2°45.752 136.2 12.9 138 24.3
2005-09-22 12:09:55 51°20.441 2°46.007 128.4 12.9 131 22.3
2005-09-22 12:10:55 51°20.305 2°46.277 126.9 13 129 17.3
2005-09-22 12:11:55 51°20.17 2°46.548 127.1 12.9 130 17.2
2005-09-22 12:12:54 51°20.04 2°46.819 125.4 13.1 128 18.3
2005-09-22 12:13:54 51°19.911 2°47.094 123.8 12.9 127 20.7
2005-09-22 12:14:55 51°19.783 2°47.372 122.7 12.9 126 22.1
2005-09-22 12:15:55 51°19.653 2°47.649 124.1 12.9 127 22.5
2005-09-22 12:16:55 51°19.524 2°47.924 122.9 13.1 128 22.1
2005-09-22 12:17:55 51°19.396 2°48.201 122.6 13 126 19.9
2005-09-22 12:18:54 51°19.271 2°48.474 123.3 12.8 127 17.8
2005-09-22 12:19:55 51°19.144 2°48.759 123 13 125 15.6
2005-09-22 12:20:55 51°19.02 2°49.04 123.3 12.9 125 12.9
2005-09-22 12:21:54 51°18.897 2°49.321 122.9 13 124 12.1
2005-09-22 12:22:54 51°18.771 2°49.603 124 13 127 11.5
2005-09-22 12:23:55 51°18.64 2°49.885 123.5 13.2 127 13.5
2005-09-22 12:24:54 51°18.509 2°50.161 124 13.2 128 14.9
2005-09-22 12:25:55 51°18.375 2°50.442 122.4 13.2 126 14.8
2005-09-22 12:26:55 51°18.248 2°50.718 122.9 13 127 14
2005-09-22 12:27:54 51°18.112 2°50.987 125.7 13.2 129 13.4
2005-09-22 12:28:54 51°17.976 2°51.259 126.1 13.3 129 11.9
2005-09-22 12:29:55 51°17.831 2°51.53 128.5 13.2 130 11
2005-09-22 12:30:55 51°17.683 2°51.789 130.3 13 133 10.9
2005-09-22 12:31:55 51°17.526 2°52.042 133.6 13.4 137 11.2
2005-09-22 12:32:54 51°17.341 2°52.242 147.8 13.5 150 11.1
2005-09-22 12:33:55 51°17.148 2°52.44 145.2 13.5 147 10.7
2005-09-22 12:34:55 51°16.956 2°52.634 147.3 13.9 149 10.7
2005-09-22 12:35:54 51°16.764 2°52.823 146.1 13.7 148 10.7
2005-09-22 12:36:54 51°16.565 2°53.007 148.7 13.8 150 12.2
2005-09-22 12:37:54 51°16.37 2°53.191 149 13.6 151 12.8
2005-09-22 12:38:55 51°16.164 2°53.347 155.3 13.8 156 12.6
2005-09-22 12:39:55 51°15.955 2°53.493 155 13.6 156 12.3
2005-09-22 12:40:55 51°15.744 2°53.628 156.8 13.6 159 11.8
2005-09-22 12:41:55 51°15.533 2°53.762 158.1 13.8 160 11.3
2005-09-22 12:42:55 51°15.338 2°53.894 156.5 10.5 157 10.9
2005-09-22 12:43:54 51°15.192 2°53.995 156.2 10.1 156 10.2
2005-09-22 12:44:55 51°15.018 2°54.132 151.5 12.2 150 9.7
2005-09-22 12:45:54 51°14.847 2°54.303 145.1 12.4 144 10.2
2005-09-22 12:46:55 51°14.681 2°54.497 144.4 12.3 143 10.7
2005-09-22 12:47:54 51°14.539 2°54.724 131.1 12.3 130 11.1
2005-09-22 12:48:54 51°14.411 2°54.975 130.4 12.1 127 11.3
2005-09-22 12:49:55 51°14.294 2°55.21 133.9 10.8 131 11.8
2005-09-22 12:50:55 51°14.16 2°55.383 152 10.2 148 -999
2005-09-22 12:51:54 51°14.034 2°55.479 158.7 7.4 159 11.4
2005-09-22 12:52:54 51°13.93 2°55.561 158.2 7 155 10.9
2005-09-22 12:53:54 51°13.825 2°55.638 156.5 6.5 154 11.5
2005-09-22 12:54:55 51°13.745 2°55.729 137.7 5.6 136 10.8
2005-09-22 12:55:54 51°13.689 2°55.84 129.1 5.3 126 10
2005-09-22 12:56:55 51°13.643 2°55.961 119 4.9 117 10.6
2005-09-22 12:57:54 51°13.614 2°56.056 117.6 3.4 117 10.2
2005-09-22 12:58:55 51°13.603 2°56.091 111.6 0.8 109 8.1
2005-09-22 12:59:55 51°13.6 2°56.098 106 0.4 113 7.7
2005-09-22 13:00:54 51°13.599 2°56.1 102.4 0.1 16 5.8